createdAt,value
2022-08-17T00:00:43.678Z,25.00
2022-08-17T00:03:17.182Z,24.71
2022-08-17T00:05:43.915Z,24.58
2022-08-17T00:08:10.308Z,23.45
2022-08-17T00:10:36.685Z,23.70
2022-08-17T00:13:03.065Z,24.02
2022-08-17T00:15:29.467Z,23.92
2022-08-17T00:17:55.852Z,22.93
2022-08-17T00:20:23.417Z,22.59
2022-08-17T00:22:58.522Z,22.34
2022-08-17T00:25:24.921Z,22.50
2022-08-17T00:27:51.299Z,22.90
2022-08-17T00:30:17.709Z,23.14
2022-08-17T00:33:22.799Z,23.31
2022-08-17T00:35:30.457Z,23.16
2022-08-17T00:37:56.839Z,23.51
2022-08-17T00:40:24.633Z,23.58
2022-08-17T00:42:51.390Z,23.46
2022-08-17T00:45:17.908Z,23.52
2022-08-17T00:47:44.298Z,23.36
2022-08-17T00:50:10.673Z,23.40
2022-08-17T00:52:37.051Z,23.30
2022-08-17T00:55:03.432Z,23.31
2022-08-17T00:57:29.828Z,23.52
2022-08-17T01:00:02.182Z,23.60
2022-08-17T01:02:29.792Z,23.57
2022-08-17T01:05:00.674Z,23.58
2022-08-17T01:07:27.054Z,23.56
2022-08-17T01:09:53.446Z,23.39
2022-08-17T01:12:19.855Z,23.47
2022-08-17T01:14:46.248Z,23.55
2022-08-17T01:17:12.633Z,23.61
2022-08-17T01:19:39.030Z,23.64
2022-08-17T01:22:05.398Z,23.52
2022-08-17T01:24:31.779Z,23.33
2022-08-17T01:27:00.254Z,23.50
2022-08-17T01:29:26.726Z,23.68
2022-08-17T01:31:53.124Z,23.89
2022-08-17T01:34:19.502Z,23.88
2022-08-17T01:36:46.770Z,23.80
2022-08-17T01:39:13.168Z,23.71
2022-08-17T01:41:39.566Z,23.51
2022-08-17T01:44:05.940Z,23.67
2022-08-17T01:46:32.353Z,23.70
2022-08-17T01:48:58.724Z,23.64
2022-08-17T01:51:25.098Z,23.58
2022-08-17T01:53:51.487Z,23.66
2022-08-17T01:56:17.869Z,23.79
2022-08-17T01:58:44.262Z,23.84
2022-08-17T02:01:10.714Z,23.91
2022-08-17T02:03:37.143Z,24.07
2022-08-17T02:06:03.518Z,24.12
2022-08-17T02:08:39.245Z,24.06
2022-08-17T02:11:18.053Z,24.20
2022-08-17T02:13:46.194Z,24.29
2022-08-17T02:16:12.587Z,24.24
2022-08-17T02:18:38.961Z,24.16
2022-08-17T02:21:05.364Z,24.16
2022-08-17T02:23:31.727Z,24.17
2022-08-17T02:25:58.127Z,23.96
2022-08-17T02:28:24.524Z,23.77
2022-08-17T02:31:02.095Z,23.80
2022-08-17T02:33:42.463Z,23.85
2022-08-17T02:36:09.760Z,23.81
2022-08-17T02:38:36.139Z,23.76
2022-08-17T02:41:02.522Z,23.81
2022-08-17T02:43:28.924Z,23.79
2022-08-17T02:45:55.322Z,23.88
2022-08-17T02:48:30.437Z,23.61
2022-08-17T02:50:58.297Z,23.41
2022-08-17T02:53:24.705Z,23.34
2022-08-17T02:55:52.178Z,23.12
2022-08-17T02:58:19.085Z,23.24
2022-08-17T03:01:01.976Z,23.24
2022-08-17T03:03:28.376Z,23.28
2022-08-17T03:05:54.744Z,23.36
2022-08-17T03:08:21.139Z,23.45
2022-08-17T03:10:47.535Z,23.38
2022-08-17T03:13:13.905Z,23.32
2022-08-17T03:15:43.765Z,23.27
2022-08-17T03:18:14.395Z,23.41
2022-08-17T03:20:51.611Z,23.40
2022-08-17T03:23:17.993Z,23.43
2022-08-17T03:25:44.368Z,23.27
2022-08-17T03:28:12.149Z,23.27
2022-08-17T03:30:38.530Z,23.27
2022-08-17T03:33:04.909Z,23.25
2022-08-17T03:35:31.281Z,23.32
2022-08-17T03:38:00.117Z,23.30
2022-08-17T03:40:55.591Z,23.36
2022-08-17T03:43:13.941Z,23.46
2022-08-17T03:45:43.663Z,23.56
2022-08-17T03:48:10.041Z,23.53
2022-08-17T03:50:36.411Z,23.44
2022-08-17T03:53:02.813Z,23.36
2022-08-17T03:55:35.885Z,23.24
2022-08-17T03:58:02.660Z,23.21
2022-08-17T04:00:29.053Z,23.02
2022-08-17T04:02:55.477Z,23.10
2022-08-17T04:05:21.857Z,23.17
2022-08-17T04:07:48.227Z,23.14
2022-08-17T04:10:14.613Z,23.02
2022-08-17T04:12:40.984Z,23.00
2022-08-17T04:15:07.414Z,22.81
2022-08-17T04:17:33.795Z,22.73
2022-08-17T04:20:00.244Z,22.67
2022-08-17T04:22:30.441Z,22.71
2022-08-17T04:24:59.891Z,22.62
2022-08-17T04:27:26.282Z,22.66
2022-08-17T04:29:55.553Z,22.68
2022-08-17T04:33:04.504Z,22.64
2022-08-17T04:35:08.789Z,22.53
2022-08-17T04:37:35.171Z,22.49
2022-08-17T04:40:04.143Z,22.38
2022-08-17T04:42:30.921Z,22.38
2022-08-17T04:44:57.298Z,22.54
2022-08-17T04:47:23.721Z,22.40
2022-08-17T04:49:50.099Z,22.39
2022-08-17T04:52:37.508Z,22.61
2022-08-17T04:55:02.845Z,22.67
2022-08-17T04:57:29.246Z,22.63
2022-08-17T05:00:05.920Z,22.56
2022-08-17T05:02:32.437Z,22.36
2022-08-17T05:04:58.840Z,22.15
2022-08-17T05:07:31.291Z,22.08
2022-08-17T05:09:58.020Z,22.08
2022-08-17T05:12:24.397Z,22.13
2022-08-17T05:14:50.775Z,22.12
2022-08-17T05:17:17.150Z,22.11
2022-08-17T05:19:43.566Z,22.05
2022-08-17T05:22:09.949Z,22.17
2022-08-17T05:24:42.673Z,22.20
2022-08-17T05:27:10.209Z,22.28
2022-08-17T05:29:43.170Z,22.23
2022-08-17T05:32:38.614Z,22.33
2022-08-17T05:34:55.911Z,22.33
2022-08-17T05:37:22.733Z,22.40
2022-08-17T05:39:49.139Z,22.47
2022-08-17T05:42:15.589Z,22.51
2022-08-17T05:44:41.998Z,22.63
2022-08-17T05:47:09.834Z,22.64
2022-08-17T05:49:36.849Z,22.69
2022-08-17T05:52:03.244Z,22.71
2022-08-17T05:54:29.615Z,22.71
2022-08-17T05:56:56.024Z,22.84
2022-08-17T05:59:22.416Z,22.93
2022-08-17T06:01:48.797Z,22.94
2022-08-17T06:04:15.192Z,22.93
2022-08-17T06:06:41.588Z,22.95
2022-08-17T06:09:08.003Z,23.05
2022-08-17T06:11:35.347Z,23.13
2022-08-17T06:14:03.761Z,23.22
2022-08-17T06:16:34.044Z,23.14
2022-08-17T06:19:00.984Z,23.18
2022-08-17T06:21:30.370Z,23.21
2022-08-17T06:23:58.328Z,23.54
2022-08-17T06:26:25.938Z,23.60
2022-08-17T06:29:00.895Z,23.75
2022-08-17T06:31:27.300Z,23.82
2022-08-17T06:33:53.688Z,23.94
2022-08-17T06:36:20.082Z,24.04
2022-08-17T06:38:48.076Z,24.07
2022-08-17T06:41:14.478Z,24.17
2022-08-17T06:43:43.114Z,24.43
2022-08-17T06:46:11.467Z,24.53
2022-08-17T06:48:37.884Z,24.67
2022-08-17T06:51:04.290Z,24.60
2022-08-17T06:53:30.660Z,24.61
2022-08-17T06:55:57.055Z,24.60
2022-08-17T06:58:23.447Z,24.56
2022-08-17T07:00:58.738Z,24.65
2022-08-17T07:03:25.398Z,24.71
2022-08-17T07:05:51.774Z,24.72
2022-08-17T07:08:18.178Z,24.70
2022-08-17T07:10:44.568Z,24.73
2022-08-17T07:13:10.958Z,24.80
2022-08-17T07:15:37.366Z,24.83
2022-08-17T07:18:03.905Z,24.87
2022-08-17T07:20:30.344Z,24.94
2022-08-17T07:22:59.989Z,24.89
2022-08-17T07:25:26.727Z,24.93
2022-08-17T07:27:53.129Z,24.78
2022-08-17T07:30:19.498Z,24.70
2022-08-17T07:32:47.026Z,24.55
2022-08-17T07:35:16.264Z,24.63
2022-08-17T07:37:42.756Z,24.66
2022-08-17T07:40:15.887Z,24.66
2022-08-17T07:42:46.756Z,24.57
2022-08-17T07:45:13.256Z,24.57
2022-08-17T07:47:39.649Z,24.63
2022-08-17T07:50:06.065Z,24.73
2022-08-17T07:52:50.619Z,24.32
2022-08-17T07:55:18.435Z,24.57
2022-08-17T07:57:44.824Z,24.87
2022-08-17T08:00:16.110Z,25.13
2022-08-17T08:02:42.804Z,25.24
2022-08-17T08:05:10.135Z,25.04
2022-08-17T08:07:36.570Z,25.01
2022-08-17T08:10:02.971Z,25.09
2022-08-17T08:12:33.663Z,24.95
2022-08-17T08:15:00.378Z,24.62
2022-08-17T08:17:26.775Z,24.11
2022-08-17T08:19:53.157Z,24.14
2022-08-17T08:22:19.547Z,24.16
2022-08-17T08:24:45.937Z,24.23
2022-08-17T08:27:12.333Z,24.17
2022-08-17T08:29:38.700Z,24.26
2022-08-17T08:32:05.101Z,24.28
2022-08-17T08:34:59.029Z,24.21
2022-08-17T08:37:25.003Z,24.12
2022-08-17T08:39:56.932Z,24.14
2022-08-17T08:42:23.486Z,24.35
2022-08-17T08:45:00.719Z,24.71
2022-08-17T08:47:30.400Z,24.61
2022-08-17T08:50:04.491Z,23.57
2022-08-17T08:52:31.337Z,23.48
2022-08-17T08:54:57.755Z,23.82
2022-08-17T08:57:28.975Z,23.75
2022-08-17T08:59:58.330Z,23.55
2022-08-17T09:02:24.941Z,23.83
2022-08-17T09:05:13.405Z,24.03
2022-08-17T09:07:37.721Z,23.76
2022-08-17T09:10:04.111Z,23.85
2022-08-17T09:12:30.488Z,24.01
2022-08-17T09:14:56.882Z,24.19
2022-08-17T09:17:23.275Z,24.48
2022-08-17T09:19:49.670Z,23.71
2022-08-17T09:22:16.060Z,23.79
2022-08-17T09:24:42.465Z,23.84
2022-08-17T09:27:08.850Z,23.49
2022-08-17T09:29:35.373Z,23.70
2022-08-17T09:32:01.823Z,23.76
2022-08-17T09:34:32.149Z,23.32
2022-08-17T09:36:59.700Z,23.08
2022-08-17T09:39:26.140Z,23.00
2022-08-17T09:41:52.567Z,23.68
2022-08-17T09:44:23.553Z,24.10
2022-08-17T09:46:50.362Z,24.55
2022-08-17T09:49:16.747Z,24.27
2022-08-17T09:51:43.141Z,24.69
2022-08-17T09:54:37.667Z,25.30
2022-08-17T09:57:11.741Z,25.00
2022-08-17T09:59:42.299Z,24.71
2022-08-17T10:02:08.722Z,24.97
2022-08-17T10:04:39.883Z,24.57
2022-08-17T10:07:06.327Z,24.17
2022-08-17T10:09:32.714Z,24.43
2022-08-17T10:11:59.166Z,24.41
2022-08-17T10:14:37.252Z,24.06
2022-08-17T10:17:09.798Z,24.46
2022-08-17T10:19:36.196Z,24.36
2022-08-17T10:22:14.507Z,24.64
2022-08-17T10:24:41.440Z,24.58
2022-08-17T10:27:27.800Z,24.98
2022-08-17T10:29:54.197Z,24.73
2022-08-17T10:32:20.598Z,24.84
2022-08-17T10:34:47.029Z,25.39
2022-08-17T10:37:13.409Z,25.84
2022-08-17T10:39:52.624Z,26.03
2022-08-17T10:42:30.348Z,25.66
2022-08-17T10:44:59.284Z,25.75
2022-08-17T10:47:25.672Z,25.80
2022-08-17T10:49:52.074Z,25.20
2022-08-17T10:52:18.459Z,25.97
2022-08-17T10:54:44.843Z,26.18
2022-08-17T10:57:11.241Z,26.05
2022-08-17T10:59:37.665Z,26.21
2022-08-17T11:02:04.054Z,25.22
2022-08-17T11:04:30.465Z,25.52
2022-08-17T11:06:56.861Z,25.43
2022-08-17T11:09:23.251Z,25.67
2022-08-17T11:11:49.657Z,26.16
2022-08-17T11:14:16.041Z,25.41
2022-08-17T11:16:42.447Z,25.74
2022-08-17T11:19:10.143Z,25.86
2022-08-17T11:21:36.546Z,26.02
2022-08-17T11:24:02.960Z,25.94
2022-08-17T11:26:29.354Z,25.65
2022-08-17T11:28:55.780Z,25.76
2022-08-17T11:31:22.210Z,25.72
2022-08-17T11:34:05.754Z,26.51
2022-08-17T11:36:32.175Z,26.81
2022-08-17T11:38:58.582Z,27.32
2022-08-17T11:41:24.975Z,27.41
2022-08-17T11:43:51.454Z,27.46
2022-08-17T11:46:17.858Z,27.06
2022-08-17T11:48:47.012Z,26.85
2022-08-17T11:51:13.428Z,27.05
2022-08-17T11:53:39.803Z,27.39
2022-08-17T11:56:06.229Z,27.57
2022-08-17T11:58:32.620Z,28.02
2022-08-17T12:00:59.019Z,28.56
2022-08-17T12:03:25.446Z,28.48
2022-08-17T12:05:51.887Z,28.45
2022-08-17T12:08:18.343Z,27.98
2022-08-17T12:10:44.737Z,27.95
2022-08-17T12:13:11.127Z,27.22
2022-08-17T12:15:37.531Z,26.94
2022-08-17T12:18:03.968Z,27.68
2022-08-17T12:20:30.379Z,27.08
2022-08-17T12:22:56.773Z,27.73
2022-08-17T12:25:23.166Z,28.01
2022-08-17T12:28:06.202Z,27.80
2022-08-17T12:30:33.751Z,27.45
2022-08-17T12:33:00.150Z,27.64
2022-08-17T12:35:26.570Z,28.11
2022-08-17T12:37:52.987Z,27.54
2022-08-17T12:40:19.384Z,27.89
2022-08-17T12:42:45.797Z,28.32
2022-08-17T12:45:12.309Z,28.35
2022-08-17T12:47:38.696Z,28.46
2022-08-17T12:50:05.090Z,28.52
2022-08-17T12:52:33.368Z,28.62
2022-08-17T12:54:59.779Z,28.40
2022-08-17T12:57:26.186Z,28.32
2022-08-17T12:59:52.559Z,28.52
2022-08-17T13:02:18.948Z,28.37
2022-08-17T13:04:45.332Z,28.30
2022-08-17T13:07:14.209Z,28.82
2022-08-17T13:09:41.086Z,27.84
2022-08-17T13:12:07.728Z,28.10
2022-08-17T13:14:34.284Z,28.13
2022-08-17T13:17:00.739Z,28.33
2022-08-17T13:19:29.903Z,27.82
2022-08-17T13:22:07.078Z,28.00
2022-08-17T13:24:38.503Z,28.04
2022-08-17T13:27:08.216Z,27.72
2022-08-17T13:29:34.966Z,27.75
2022-08-17T13:32:04.231Z,27.99
2022-08-17T13:34:31.562Z,27.65
2022-08-17T13:36:59.796Z,27.77
2022-08-17T13:39:26.311Z,28.47
2022-08-17T13:41:52.743Z,28.48
2022-08-17T13:44:19.139Z,28.83
2022-08-17T13:46:45.533Z,28.92
2022-08-17T13:49:18.801Z,28.88
2022-08-17T13:51:45.199Z,28.96
2022-08-17T13:54:11.598Z,29.24
2022-08-17T13:56:39.574Z,28.97
2022-08-17T13:59:06.205Z,28.67
2022-08-17T14:01:32.701Z,28.20
2022-08-17T14:03:59.126Z,28.70
2022-08-17T14:06:52.979Z,28.45
2022-08-17T14:09:11.994Z,28.39
2022-08-17T14:11:38.412Z,28.31
2022-08-17T14:14:04.809Z,28.31
2022-08-17T14:16:31.192Z,28.50
2022-08-17T14:18:57.610Z,28.57
2022-08-17T14:21:24.008Z,28.74
2022-08-17T14:23:54.575Z,29.02
2022-08-17T14:26:21.391Z,29.29
2022-08-17T14:28:54.473Z,29.43
2022-08-17T14:31:22.583Z,29.55
2022-08-17T14:33:48.978Z,29.84
2022-08-17T14:36:15.403Z,30.07
2022-08-17T14:38:41.804Z,30.05
2022-08-17T14:41:08.193Z,30.47
2022-08-17T14:43:34.574Z,30.67
2022-08-17T14:46:00.949Z,30.64
2022-08-17T14:48:27.398Z,30.67
2022-08-17T14:50:53.782Z,30.75
2022-08-17T14:53:20.157Z,30.74
2022-08-17T14:55:47.075Z,30.55
2022-08-17T14:58:15.051Z,30.42
2022-08-17T15:00:41.456Z,30.24
2022-08-17T15:03:07.844Z,30.32
2022-08-17T15:05:34.282Z,30.05
2022-08-17T15:08:00.726Z,29.86
2022-08-17T15:10:27.115Z,29.80
2022-08-17T15:12:53.582Z,29.53
2022-08-17T15:15:19.976Z,29.38
2022-08-17T15:17:46.352Z,29.63
2022-08-17T15:20:14.840Z,29.76
2022-08-17T15:22:41.606Z,29.52
2022-08-17T15:25:07.988Z,29.35
2022-08-17T15:27:34.392Z,29.36
2022-08-17T15:30:00.778Z,28.99
2022-08-17T15:32:27.182Z,28.60
2022-08-17T15:34:53.565Z,28.48
2022-08-17T15:37:19.980Z,28.30
2022-08-17T15:39:46.421Z,28.10
2022-08-17T15:42:12.867Z,27.93
2022-08-17T15:44:39.269Z,27.72
2022-08-17T15:47:05.660Z,27.54
2022-08-17T15:49:32.054Z,27.52
2022-08-17T15:51:58.590Z,27.44
2022-08-17T15:54:25.029Z,27.45
2022-08-17T15:56:58.163Z,27.39
2022-08-17T15:59:24.572Z,27.36
2022-08-17T16:02:54.705Z,27.19
2022-08-17T16:04:39.633Z,27.08
2022-08-17T16:07:10.592Z,26.89
2022-08-17T16:09:36.993Z,26.81
2022-08-17T16:12:03.394Z,26.74
2022-08-17T16:14:33.871Z,26.70
2022-08-17T16:17:01.588Z,26.69
2022-08-17T16:19:27.982Z,26.53
2022-08-17T16:21:54.387Z,26.56
2022-08-17T16:24:20.808Z,26.43
2022-08-17T16:26:47.195Z,26.43
2022-08-17T16:29:13.581Z,26.21
2022-08-17T16:31:39.995Z,25.85
2022-08-17T16:34:17.353Z,24.32
2022-08-17T16:36:54.639Z,23.49
2022-08-17T16:39:22.693Z,22.02
2022-08-17T16:41:49.093Z,21.00
2022-08-17T16:44:15.770Z,19.41
2022-08-17T16:46:45.768Z,16.20
2022-08-17T16:49:12.603Z,15.74
2022-08-17T16:51:56.127Z,15.39
2022-08-17T16:54:22.525Z,15.22
2022-08-17T16:56:48.930Z,15.68
2022-08-17T16:59:31.030Z,16.24
2022-08-17T17:02:02.098Z,16.74
2022-08-17T17:04:28.489Z,16.91
2022-08-17T17:06:54.885Z,17.15
2022-08-17T17:09:21.275Z,17.56
2022-08-17T17:11:47.717Z,17.50
2022-08-17T17:14:14.096Z,17.43
2022-08-17T17:16:42.856Z,17.42
2022-08-17T17:19:11.264Z,17.50
2022-08-17T17:21:37.684Z,17.35
2022-08-17T17:24:04.089Z,17.66
2022-08-17T17:26:30.468Z,17.95
2022-08-17T17:28:56.864Z,18.33
2022-08-17T17:31:23.242Z,18.56
2022-08-17T17:33:49.696Z,18.78
2022-08-17T17:36:16.081Z,19.19
2022-08-17T17:38:42.501Z,19.50
2022-08-17T17:41:08.894Z,19.84
2022-08-17T17:43:40.316Z,19.81
2022-08-17T17:46:27.921Z,19.90
2022-08-17T17:48:53.612Z,20.00
2022-08-17T17:52:06.401Z,20.04
2022-08-17T17:54:06.406Z,19.53
2022-08-17T17:56:43.120Z,19.69
2022-08-17T17:59:12.757Z,19.78
2022-08-17T18:01:41.008Z,19.84
2022-08-17T18:04:17.657Z,19.84
2022-08-17T18:06:47.217Z,19.88
2022-08-17T18:09:19.465Z,19.79
2022-08-17T18:11:46.041Z,19.90
2022-08-17T18:14:17.994Z,20.14
2022-08-17T18:16:44.396Z,20.18
2022-08-17T18:19:10.813Z,20.41
2022-08-17T18:21:37.273Z,20.47
2022-08-17T18:24:03.673Z,20.33
2022-08-17T18:26:30.106Z,20.30
2022-08-17T18:28:58.584Z,20.37
2022-08-17T18:31:24.982Z,20.42
2022-08-17T18:33:51.373Z,20.43
2022-08-17T18:36:17.764Z,20.52
2022-08-17T18:38:44.152Z,20.37
2022-08-17T18:41:10.546Z,20.17
2022-08-17T18:43:53.119Z,20.12
2022-08-17T18:46:28.600Z,20.10
2022-08-17T18:48:56.005Z,19.79
2022-08-17T18:51:40.786Z,19.70
2022-08-17T18:54:09.361Z,19.80
2022-08-17T18:56:35.736Z,19.72
2022-08-17T18:59:02.188Z,19.64
2022-08-17T19:01:41.757Z,19.74
2022-08-17T19:04:14.963Z,19.66
2022-08-17T19:06:41.366Z,19.59
2022-08-17T19:09:07.743Z,19.47
2022-08-17T19:11:34.145Z,19.44
2022-08-17T19:14:00.541Z,19.45
2022-08-17T19:16:26.933Z,19.41
2022-08-17T19:18:53.434Z,19.32
2022-08-17T19:21:19.844Z,19.10
2022-08-17T19:23:54.003Z,19.15
2022-08-17T19:26:55.210Z,19.14
2022-08-17T19:29:07.256Z,19.13
2022-08-17T19:31:33.657Z,19.23
2022-08-17T19:34:02.528Z,19.27
2022-08-17T19:36:28.955Z,19.20
2022-08-17T19:38:55.345Z,19.19
2022-08-17T19:41:22.741Z,19.20
2022-08-17T19:43:49.160Z,19.13
2022-08-17T19:46:15.539Z,18.84
2022-08-17T19:48:42.026Z,19.03
2022-08-17T19:51:08.404Z,19.03
2022-08-17T19:54:01.546Z,19.20
2022-08-17T19:56:21.222Z,19.34
2022-08-17T19:58:47.681Z,19.40
2022-08-17T20:01:14.601Z,19.44
2022-08-17T20:03:41.016Z,19.41
2022-08-17T20:06:14.661Z,19.31
2022-08-17T20:08:41.072Z,19.44
2022-08-17T20:11:07.468Z,19.50
2022-08-17T20:13:34.971Z,19.78
2022-08-17T20:16:01.373Z,19.80
2022-08-17T20:18:27.787Z,19.94
2022-08-17T20:20:55.709Z,20.00
2022-08-17T20:23:22.313Z,20.02
2022-08-17T20:25:48.729Z,20.11
2022-08-17T20:28:15.149Z,19.96
2022-08-17T20:30:41.545Z,20.02
2022-08-17T20:33:12.461Z,20.17
2022-08-17T20:35:39.739Z,20.03
2022-08-17T20:38:06.126Z,19.88
2022-08-17T20:40:32.646Z,19.86
2022-08-17T20:42:59.065Z,20.09
2022-08-17T20:45:25.447Z,20.07
2022-08-17T20:48:18.724Z,20.12
2022-08-17T20:50:38.210Z,20.09
2022-08-17T20:53:04.701Z,20.22
2022-08-17T20:55:31.119Z,20.29
2022-08-17T20:57:58.970Z,20.41
2022-08-17T21:00:25.344Z,20.44
2022-08-17T21:02:51.812Z,20.37
2022-08-17T21:05:18.233Z,20.39
2022-08-17T21:07:44.649Z,20.39
2022-08-17T21:10:11.075Z,20.42
2022-08-17T21:12:37.477Z,20.45
2022-08-17T21:15:03.879Z,19.88
2022-08-17T21:17:30.278Z,19.23
2022-08-17T21:20:10.394Z,19.23
2022-08-17T21:22:38.103Z,19.45
2022-08-17T21:25:04.510Z,19.58
2022-08-17T21:27:30.877Z,19.65
2022-08-17T21:29:57.266Z,19.74
2022-08-17T21:32:24.493Z,19.80
2022-08-17T21:34:51.748Z,19.92
2022-08-17T21:37:18.120Z,19.94
2022-08-17T21:39:44.712Z,20.02
2022-08-17T21:42:11.131Z,20.02
2022-08-17T21:44:37.531Z,20.04
2022-08-17T21:47:03.915Z,20.17
2022-08-17T21:49:30.290Z,20.07
2022-08-17T21:52:04.294Z,20.18
2022-08-17T21:54:30.663Z,19.94
2022-08-17T21:56:57.072Z,19.72
2022-08-17T21:59:23.469Z,19.88
2022-08-17T22:01:50.593Z,19.93
2022-08-17T22:04:17.134Z,19.92
2022-08-17T22:06:56.709Z,19.88
2022-08-17T22:09:24.109Z,19.84
2022-08-17T22:11:50.497Z,19.96
2022-08-17T22:14:16.915Z,19.75
2022-08-17T22:16:43.880Z,20.06
2022-08-17T22:19:10.312Z,20.40
2022-08-17T22:21:36.685Z,20.48
2022-08-17T22:24:03.089Z,20.71
2022-08-17T22:26:29.516Z,20.56
2022-08-17T22:28:55.902Z,20.63
2022-08-17T22:31:22.310Z,20.69
2022-08-17T22:33:48.777Z,20.81
2022-08-17T22:36:15.202Z,20.71
2022-08-17T22:38:41.597Z,20.59
2022-08-17T22:41:09.943Z,20.40
2022-08-17T22:43:36.367Z,20.44
2022-08-17T22:46:02.780Z,20.42
2022-08-17T22:48:29.214Z,20.39
2022-08-17T22:50:55.734Z,20.32
2022-08-17T22:53:22.139Z,20.31
2022-08-17T22:55:48.511Z,20.15
2022-08-17T22:58:14.908Z,20.27
2022-08-17T23:00:41.267Z,20.11
2022-08-17T23:03:07.741Z,20.17
2022-08-17T23:05:34.175Z,20.37
2022-08-17T23:08:00.540Z,20.34
2022-08-17T23:10:26.912Z,20.32
2022-08-17T23:12:53.290Z,20.30
2022-08-17T23:15:19.702Z,20.29
2022-08-17T23:17:46.085Z,20.38
2022-08-17T23:20:12.542Z,20.28
2022-08-17T23:22:52.561Z,20.22
2022-08-17T23:25:19.333Z,20.27
2022-08-17T23:27:47.005Z,20.24
2022-08-17T23:30:13.534Z,20.25
2022-08-17T23:32:53.360Z,20.31
2022-08-17T23:35:20.450Z,20.39
2022-08-17T23:38:06.836Z,20.24
2022-08-17T23:40:33.240Z,20.14
2022-08-17T23:42:59.673Z,20.09
2022-08-17T23:45:26.107Z,20.02
2022-08-17T23:47:52.647Z,20.03
2022-08-17T23:50:19.127Z,20.03
2022-08-17T23:52:46.617Z,20.20
2022-08-17T23:55:13.029Z,20.27
2022-08-17T23:57:39.414Z,20.38
